createdAt,value
2016-11-18T00:00:50.511Z,989.34
2016-11-18T00:01:50.492Z,989.34
2016-11-18T00:02:50.476Z,989.32
2016-11-18T00:03:50.461Z,989.33
2016-11-18T00:04:50.446Z,989.3
2016-11-18T00:05:50.431Z,989.35
2016-11-18T00:06:50.415Z,989.32
2016-11-18T00:07:50.398Z,989.35
2016-11-18T00:08:50.385Z,989.32
2016-11-18T00:09:50.365Z,989.27
2016-11-18T00:10:50.350Z,989.34
2016-11-18T00:11:50.335Z,989.28
2016-11-18T00:12:50.319Z,989.25
2016-11-18T00:13:50.303Z,989.17
2016-11-18T00:14:50.290Z,989.15
2016-11-18T00:15:50.272Z,989.11
2016-11-18T00:16:50.255Z,989.06
2016-11-18T00:17:50.239Z,989.05
2016-11-18T00:18:50.222Z,988.99
2016-11-18T00:19:50.209Z,989.03
2016-11-18T00:20:50.188Z,989
2016-11-18T00:21:50.173Z,989.07
2016-11-18T00:22:50.157Z,988.99
2016-11-18T00:23:50.144Z,988.96
2016-11-18T00:24:50.130Z,988.89
2016-11-18T00:25:50.110Z,988.88
2016-11-18T00:26:50.095Z,988.88
2016-11-18T00:27:50.078Z,988.87
2016-11-18T00:28:50.061Z,988.8
2016-11-18T00:29:50.047Z,988.83
2016-11-18T00:30:50.032Z,988.81
2016-11-18T00:31:50.015Z,988.8
2016-11-18T00:32:49.998Z,988.8
2016-11-18T00:33:49.984Z,988.8
2016-11-18T00:34:49.971Z,988.81
2016-11-18T00:35:49.950Z,988.78
2016-11-18T00:36:49.935Z,988.74
2016-11-18T00:37:49.920Z,988.75
2016-11-18T00:38:49.903Z,988.64
2016-11-18T00:39:49.886Z,988.71
2016-11-18T00:40:49.870Z,988.77
2016-11-18T00:41:49.855Z,988.65
2016-11-18T00:42:49.838Z,988.67
2016-11-18T00:43:49.821Z,988.67
2016-11-18T00:44:49.804Z,988.65
2016-11-18T00:45:49.792Z,988.63
2016-11-18T00:46:49.773Z,988.72
2016-11-18T00:47:49.758Z,988.67
2016-11-18T00:48:49.741Z,988.63
2016-11-18T00:49:49.728Z,988.62
2016-11-18T00:50:49.708Z,988.65
2016-11-18T00:51:49.693Z,988.62
2016-11-18T00:52:49.676Z,988.62
2016-11-18T00:53:49.661Z,988.73
2016-11-18T00:54:49.644Z,989.13
2016-11-18T00:55:49.628Z,989.25
2016-11-18T00:56:49.612Z,989.32
2016-11-18T00:57:49.596Z,989.15
2016-11-18T00:58:49.583Z,989.09
2016-11-18T00:59:49.563Z,989.13
2016-11-18T01:00:49.544Z,989.08
2016-11-18T01:01:49.532Z,988.96
2016-11-18T01:02:49.514Z,988.99
2016-11-18T01:03:49.499Z,989.17
2016-11-18T01:04:49.481Z,989.18
2016-11-18T01:05:49.466Z,988.84
2016-11-18T01:06:49.449Z,988.82
2016-11-18T01:07:49.434Z,989.29
2016-11-18T01:08:49.414Z,989.37
2016-11-18T01:09:49.403Z,989.22
2016-11-18T01:10:49.387Z,989.2
2016-11-18T01:11:49.367Z,989.34
2016-11-18T01:12:49.351Z,989.47
2016-11-18T01:13:49.336Z,989.12
2016-11-18T01:14:49.324Z,988.77
2016-11-18T01:15:49.304Z,988.76
2016-11-18T01:16:49.289Z,988.9
2016-11-18T01:17:49.272Z,988.86
2016-11-18T01:18:49.256Z,988.8
2016-11-18T01:19:49.239Z,988.94
2016-11-18T01:20:49.226Z,988.87
2016-11-18T01:21:49.206Z,988.85
2016-11-18T01:22:49.189Z,989.16
2016-11-18T01:23:49.172Z,989.18
2016-11-18T01:24:49.160Z,988.88
2016-11-18T01:25:49.140Z,989
2016-11-18T01:26:49.125Z,989.19
2016-11-18T01:27:49.109Z,989.22
2016-11-18T01:28:49.094Z,989.21
2016-11-18T01:29:49.079Z,989.16
2016-11-18T01:30:49.062Z,989.01
2016-11-18T01:31:49.043Z,988.83
2016-11-18T01:32:49.030Z,988.77
2016-11-18T01:33:49.012Z,988.87
2016-11-18T01:34:48.997Z,988.91
2016-11-18T01:35:48.978Z,988.72
2016-11-18T01:36:48.965Z,988.72
2016-11-18T01:37:48.947Z,988.83
2016-11-18T01:38:48.932Z,988.81
2016-11-18T01:39:49.133Z,988.93
2016-11-18T01:40:48.900Z,988.96
2016-11-18T01:41:48.883Z,989.02
2016-11-18T01:42:48.868Z,988.9
2016-11-18T01:43:48.853Z,988.67
2016-11-18T01:44:48.836Z,988.59
2016-11-18T01:45:48.822Z,988.79
2016-11-18T01:46:48.808Z,988.98
2016-11-18T01:47:48.788Z,989.08
2016-11-18T01:48:48.769Z,988.9
2016-11-18T01:49:48.755Z,988.74
2016-11-18T01:50:48.739Z,988.77
2016-11-18T01:51:48.723Z,988.88
2016-11-18T01:52:48.704Z,989.13
2016-11-18T01:53:48.691Z,989.07
2016-11-18T01:54:48.675Z,988.85
2016-11-18T01:55:48.657Z,988.71
2016-11-18T01:56:48.644Z,988.78
2016-11-18T01:57:48.626Z,988.85
2016-11-18T01:58:48.609Z,988.94
2016-11-18T01:59:48.594Z,988.72
2016-11-18T02:00:48.576Z,988.66
2016-11-18T02:01:48.561Z,988.68
2016-11-18T02:02:48.543Z,988.63
2016-11-18T02:03:48.529Z,988.76
2016-11-18T02:04:48.513Z,988.7
2016-11-18T02:05:48.494Z,988.69
2016-11-18T02:06:48.479Z,988.72
2016-11-18T02:07:48.464Z,988.71
2016-11-18T02:08:48.449Z,988.59
2016-11-18T02:09:48.431Z,988.58
2016-11-18T02:10:48.415Z,988.57
2016-11-18T02:11:48.399Z,988.5
2016-11-18T02:12:48.383Z,988.43
2016-11-18T02:13:48.366Z,988.35
2016-11-18T02:14:48.354Z,988.24
2016-11-18T02:15:48.338Z,988.25
2016-11-18T02:16:48.318Z,988.27
2016-11-18T02:17:48.301Z,988.24
2016-11-18T02:18:48.286Z,988.2
2016-11-18T02:19:48.267Z,988.25
2016-11-18T02:20:48.252Z,988.36
2016-11-18T02:21:48.240Z,988.5
2016-11-18T02:22:48.221Z,988.56
2016-11-18T02:23:48.204Z,988.51
2016-11-18T02:24:48.187Z,988.35
2016-11-18T02:25:48.175Z,988.2
2016-11-18T02:26:48.154Z,988.08
2016-11-18T02:27:48.139Z,988.08
2016-11-18T02:28:48.118Z,988.02
2016-11-18T02:29:48.104Z,987.94
2016-11-18T02:30:48.089Z,988.01
2016-11-18T02:31:48.074Z,988.23
2016-11-18T02:32:48.059Z,988.3
2016-11-18T02:33:48.043Z,988.34
2016-11-18T02:34:48.024Z,988.34
2016-11-18T02:35:48.007Z,988.32
2016-11-18T02:36:47.992Z,988.3
2016-11-18T02:37:47.974Z,988.24
2016-11-18T02:38:47.959Z,988.18
2016-11-18T02:39:47.944Z,988.26
2016-11-18T02:40:47.927Z,988.27
2016-11-18T02:41:47.912Z,988.22
2016-11-18T02:42:47.897Z,988.19
2016-11-18T02:43:47.879Z,988.15
2016-11-18T02:44:47.861Z,988.08
2016-11-18T02:45:47.848Z,988.13
2016-11-18T02:46:47.829Z,988.23
2016-11-18T02:47:47.812Z,988.25
2016-11-18T02:48:47.797Z,988.28
2016-11-18T02:49:47.782Z,988.19
2016-11-18T02:50:47.764Z,988.16
2016-11-18T02:51:47.745Z,988.15
2016-11-18T02:52:47.732Z,988.06
2016-11-18T02:53:47.715Z,988.11
2016-11-18T02:54:47.699Z,988.08
2016-11-18T02:55:47.682Z,987.96
2016-11-18T02:56:47.671Z,987.73
2016-11-18T02:57:47.650Z,987.52
2016-11-18T02:58:47.634Z,987.37
2016-11-18T02:59:47.614Z,987.44
2016-11-18T03:00:47.600Z,987.52
2016-11-18T03:01:47.585Z,987.54
2016-11-18T03:02:47.568Z,987.51
2016-11-18T03:03:47.552Z,987.51
2016-11-18T03:04:47.537Z,987.47
2016-11-18T03:05:47.520Z,987.41
2016-11-18T03:06:47.501Z,987.41
2016-11-18T03:07:47.492Z,987.44
2016-11-18T03:08:47.470Z,987.46
2016-11-18T03:09:47.455Z,987.5
2016-11-18T03:10:47.438Z,987.38
2016-11-18T03:11:47.422Z,987.4
2016-11-18T03:12:47.403Z,987.47
2016-11-18T03:13:47.390Z,987.5
2016-11-18T03:14:47.374Z,987.52
2016-11-18T03:15:47.356Z,987.46
2016-11-18T03:16:47.342Z,987.4
2016-11-18T03:17:47.325Z,987.41
2016-11-18T03:18:47.311Z,987.37
2016-11-18T03:19:47.292Z,987.29
2016-11-18T03:20:47.279Z,987.26
2016-11-18T03:21:47.260Z,987.22
2016-11-18T03:22:47.243Z,987.2
2016-11-18T03:23:47.227Z,987.2
2016-11-18T03:24:47.210Z,987.08
2016-11-18T03:25:47.196Z,987.15
2016-11-18T03:26:47.178Z,987.12
2016-11-18T03:27:47.160Z,987.2
2016-11-18T03:28:47.145Z,987.23
2016-11-18T03:29:47.130Z,987.27
2016-11-18T03:30:47.116Z,987.3
2016-11-18T03:31:47.092Z,987.28
2016-11-18T03:32:47.080Z,987.28
2016-11-18T03:33:47.062Z,987.23
2016-11-18T03:34:47.043Z,987.2
2016-11-18T03:35:47.030Z,987.26
2016-11-18T03:36:47.015Z,987.22
2016-11-18T03:37:46.998Z,987.24
2016-11-18T03:38:46.981Z,987.2
2016-11-18T03:39:46.965Z,987.25
2016-11-18T03:40:46.950Z,987.33
2016-11-18T03:41:46.932Z,987.35
2016-11-18T03:42:46.915Z,987.42
2016-11-18T03:43:46.900Z,987.45
2016-11-18T03:44:46.881Z,987.45
2016-11-18T03:45:46.866Z,987.44
2016-11-18T03:46:46.850Z,987.42
2016-11-18T03:47:46.837Z,987.5
2016-11-18T03:48:46.817Z,987.47
2016-11-18T03:49:46.801Z,987.5
2016-11-18T03:50:46.785Z,987.51
2016-11-18T03:51:46.771Z,987.48
2016-11-18T03:52:46.752Z,987.45
2016-11-18T03:53:46.735Z,987.4
2016-11-18T03:54:46.717Z,987.25
2016-11-18T03:55:46.702Z,987.23
2016-11-18T03:56:46.684Z,987.15
2016-11-18T03:57:46.670Z,987.08
2016-11-18T03:58:46.649Z,987.08
2016-11-18T03:59:46.635Z,987.08
2016-11-18T04:00:46.620Z,987.11
2016-11-18T04:01:46.604Z,987.1
2016-11-18T04:02:46.591Z,987.13
2016-11-18T04:03:46.571Z,987.14
2016-11-18T04:04:46.559Z,987.11
2016-11-18T04:05:46.539Z,987.08
2016-11-18T04:06:46.522Z,987.03
2016-11-18T04:07:46.505Z,986.94
2016-11-18T04:08:46.490Z,986.96
2016-11-18T04:09:46.474Z,987.04
2016-11-18T04:10:46.455Z,987.13
2016-11-18T04:11:46.442Z,987.15
2016-11-18T04:12:46.421Z,987.24
2016-11-18T04:13:46.410Z,987.27
2016-11-18T04:14:46.390Z,987.31
2016-11-18T04:15:46.376Z,987.41
2016-11-18T04:16:46.361Z,987.51
2016-11-18T04:17:46.340Z,987.56
2016-11-18T04:18:46.325Z,987.62
2016-11-18T04:19:46.308Z,987.66
2016-11-18T04:20:46.294Z,987.63
2016-11-18T04:21:46.276Z,987.59
2016-11-18T04:22:46.264Z,987.63
2016-11-18T04:23:46.244Z,987.74
2016-11-18T04:24:46.231Z,987.79
2016-11-18T04:25:46.209Z,987.77
2016-11-18T04:26:46.194Z,987.86
2016-11-18T04:27:46.181Z,987.91
2016-11-18T04:28:46.161Z,987.91
2016-11-18T04:29:46.150Z,988.01
2016-11-18T04:30:46.131Z,988.18
2016-11-18T04:31:46.112Z,988.28
2016-11-18T04:32:46.097Z,988.47
2016-11-18T04:33:46.080Z,988.65
2016-11-18T04:34:46.064Z,988.88
2016-11-18T04:35:46.051Z,988.96
2016-11-18T04:36:46.029Z,989.07
2016-11-18T04:37:46.022Z,989.01
2016-11-18T04:38:45.994Z,989.09
2016-11-18T04:39:45.982Z,989.05
2016-11-18T04:40:45.965Z,988.91
2016-11-18T04:41:45.956Z,988.84
2016-11-18T04:42:45.933Z,988.78
2016-11-18T04:43:45.930Z,988.65
2016-11-18T04:44:45.903Z,988.62
2016-11-18T04:45:45.888Z,988.55
2016-11-18T04:46:46.128Z,988.57
2016-11-18T04:47:45.850Z,988.65
2016-11-18T04:48:45.837Z,988.71
2016-11-18T04:49:45.818Z,988.81
2016-11-18T04:50:45.801Z,988.77
2016-11-18T04:51:45.788Z,988.61
2016-11-18T04:52:45.769Z,988.44
2016-11-18T04:53:45.754Z,988.23
2016-11-18T04:54:45.736Z,988.24
2016-11-18T04:55:45.719Z,988.18
2016-11-18T04:56:45.702Z,988.34
2016-11-18T04:57:45.691Z,988.42
2016-11-18T04:58:45.671Z,988.48
2016-11-18T04:59:45.654Z,988.52
2016-11-18T05:00:45.639Z,988.46
2016-11-18T05:01:45.622Z,988.36
2016-11-18T05:02:45.603Z,988.33
2016-11-18T05:03:45.589Z,988.28
2016-11-18T05:04:45.574Z,988.16
2016-11-18T05:05:45.555Z,988
2016-11-18T05:06:45.540Z,987.81
2016-11-18T05:07:45.521Z,987.75
2016-11-18T05:08:45.507Z,987.84
2016-11-18T05:09:45.489Z,987.98
2016-11-18T05:10:45.479Z,988.06
2016-11-18T05:11:45.459Z,988.2
2016-11-18T05:12:45.441Z,988.29
2016-11-18T05:13:45.425Z,988.34
2016-11-18T05:14:45.408Z,988.39
2016-11-18T05:15:45.396Z,988.42
2016-11-18T05:16:45.375Z,988.44
2016-11-18T05:17:45.360Z,988.57
2016-11-18T05:18:45.344Z,988.54
2016-11-18T05:19:45.330Z,988.46
2016-11-18T05:20:45.311Z,988.4
2016-11-18T05:21:45.293Z,988.4
2016-11-18T05:22:45.316Z,988.36
2016-11-18T05:23:45.261Z,988.19
2016-11-18T05:24:45.245Z,988.18
2016-11-18T05:25:45.227Z,988.31
2016-11-18T05:26:45.221Z,988.37
2016-11-18T05:27:45.200Z,988.43
2016-11-18T05:28:45.186Z,988.39
2016-11-18T05:29:45.164Z,988.52
2016-11-18T05:30:45.148Z,988.5
2016-11-18T05:31:45.131Z,988.44
2016-11-18T05:32:45.114Z,988.32
2016-11-18T05:33:45.099Z,988.28
2016-11-18T05:34:45.085Z,988.31
2016-11-18T05:35:45.066Z,988.35
2016-11-18T05:36:45.052Z,988.31
2016-11-18T05:37:45.034Z,988.27
2016-11-18T05:38:45.017Z,988.26
2016-11-18T05:39:45.006Z,988.15
2016-11-18T05:40:44.986Z,988.29
2016-11-18T05:41:44.969Z,988.31
2016-11-18T05:42:44.950Z,988.28
2016-11-18T05:43:44.937Z,988.39
2016-11-18T05:44:44.922Z,988.52
2016-11-18T05:45:44.905Z,988.62
2016-11-18T05:46:44.889Z,988.76
2016-11-18T05:47:44.872Z,988.88
2016-11-18T05:48:44.859Z,988.91
2016-11-18T05:49:44.840Z,988.9
2016-11-18T05:50:44.827Z,988.84
2016-11-18T05:51:44.809Z,988.79
2016-11-18T05:52:44.792Z,988.78
2016-11-18T05:53:44.775Z,988.77
2016-11-18T05:54:44.762Z,988.78
2016-11-18T05:55:44.744Z,988.67
2016-11-18T05:56:44.727Z,988.8
2016-11-18T05:57:44.712Z,988.91
2016-11-18T05:58:44.698Z,988.96
2016-11-18T05:59:44.682Z,988.87
2016-11-18T06:00:44.662Z,988.79
2016-11-18T06:01:44.650Z,988.63
2016-11-18T06:02:44.632Z,988.55
2016-11-18T06:03:44.617Z,988.55
2016-11-18T06:04:44.600Z,988.53
2016-11-18T06:05:44.582Z,988.56
2016-11-18T06:06:44.567Z,988.65
2016-11-18T06:07:44.550Z,988.68
2016-11-18T06:08:44.535Z,988.7
2016-11-18T06:09:44.524Z,988.69
2016-11-18T06:10:44.503Z,988.66
2016-11-18T06:11:44.490Z,988.68
2016-11-18T06:12:44.472Z,988.6
2016-11-18T06:13:44.455Z,988.52
2016-11-18T06:14:44.439Z,988.48
2016-11-18T06:15:44.422Z,988.45
2016-11-18T06:16:44.411Z,988.54
2016-11-18T06:17:44.388Z,988.59
2016-11-18T06:18:44.379Z,988.59
2016-11-18T06:19:44.361Z,988.56
2016-11-18T06:20:44.342Z,988.6
2016-11-18T06:21:44.327Z,988.52
2016-11-18T06:22:44.309Z,988.54
2016-11-18T06:23:44.294Z,988.53
2016-11-18T06:24:44.280Z,988.63
2016-11-18T06:25:44.263Z,988.63
2016-11-18T06:26:44.248Z,988.62
2016-11-18T06:27:44.232Z,988.63
2016-11-18T06:28:44.219Z,988.6
2016-11-18T06:29:44.200Z,988.64
2016-11-18T06:30:44.185Z,988.62
2016-11-18T06:31:44.170Z,988.59
2016-11-18T06:32:44.152Z,988.54
2016-11-18T06:33:44.136Z,988.51
2016-11-18T06:34:44.121Z,988.43
2016-11-18T06:35:44.106Z,988.4
2016-11-18T06:36:44.088Z,988.44
2016-11-18T06:37:44.073Z,988.41
2016-11-18T06:38:44.057Z,988.42
2016-11-18T06:39:44.040Z,988.32
2016-11-18T06:40:44.024Z,988.32
2016-11-18T06:41:44.008Z,988.38
2016-11-18T06:42:43.992Z,988.47
2016-11-18T06:43:43.976Z,988.58
2016-11-18T06:44:43.965Z,988.57
2016-11-18T06:45:43.945Z,988.51
2016-11-18T06:46:43.929Z,988.54
2016-11-18T06:47:43.913Z,988.56
2016-11-18T06:48:43.898Z,988.61
2016-11-18T06:49:43.883Z,988.72
2016-11-18T06:50:43.865Z,988.72
2016-11-18T06:51:43.850Z,988.79
2016-11-18T06:52:43.831Z,988.81
2016-11-18T06:53:43.816Z,988.83
2016-11-18T06:54:43.803Z,988.93
2016-11-18T06:55:43.785Z,988.99
2016-11-18T06:56:43.769Z,989.04
2016-11-18T06:57:43.755Z,989
2016-11-18T06:58:43.741Z,988.99
2016-11-18T06:59:43.721Z,988.92
2016-11-18T07:00:43.807Z,988.9
2016-11-18T07:01:43.691Z,988.87
2016-11-18T07:02:43.676Z,988.92
2016-11-18T07:03:43.658Z,988.91
2016-11-18T07:04:43.643Z,988.89
2016-11-18T07:05:43.626Z,988.83
2016-11-18T07:06:43.610Z,988.95
2016-11-18T07:07:43.595Z,988.99
2016-11-18T07:08:43.580Z,988.96
2016-11-18T07:09:43.563Z,988.92
2016-11-18T07:10:43.548Z,988.94
2016-11-18T07:11:43.532Z,988.81
2016-11-18T07:12:43.518Z,988.82
2016-11-18T07:13:43.504Z,988.76
2016-11-18T07:14:43.485Z,988.74
2016-11-18T07:15:43.472Z,988.74
2016-11-18T07:16:43.454Z,988.74
2016-11-18T07:17:43.435Z,988.66
2016-11-18T07:18:43.420Z,988.57
2016-11-18T07:19:43.405Z,988.54
2016-11-18T07:20:43.388Z,988.58
2016-11-18T07:21:43.372Z,988.54
2016-11-18T07:22:43.357Z,988.44
2016-11-18T07:23:43.348Z,988.4
2016-11-18T07:24:43.324Z,988.38
2016-11-18T07:25:43.309Z,988.32
2016-11-18T07:26:43.292Z,988.31
2016-11-18T07:27:43.277Z,988.35
2016-11-18T07:28:43.262Z,988.43
2016-11-18T07:29:43.246Z,988.45
2016-11-18T07:30:43.228Z,988.44
2016-11-18T07:31:43.215Z,988.45
2016-11-18T07:32:43.197Z,988.43
2016-11-18T07:33:43.180Z,988.5
2016-11-18T07:34:43.165Z,988.57
2016-11-18T07:35:43.156Z,988.54
2016-11-18T07:36:43.134Z,988.65
2016-11-18T07:37:43.117Z,988.7
2016-11-18T07:38:43.104Z,988.7
2016-11-18T07:39:43.087Z,988.7
2016-11-18T07:40:43.069Z,988.67
2016-11-18T07:41:43.054Z,988.68
2016-11-18T07:42:43.041Z,988.75
2016-11-18T07:43:43.024Z,988.78
2016-11-18T07:44:43.007Z,988.73
2016-11-18T07:45:42.991Z,988.77
2016-11-18T07:46:42.976Z,988.77
2016-11-18T07:47:42.961Z,988.74
2016-11-18T07:48:42.943Z,988.79
2016-11-18T07:49:42.928Z,988.81
2016-11-18T07:50:42.913Z,988.88
2016-11-18T07:51:42.898Z,988.86
2016-11-18T07:52:42.879Z,988.93
2016-11-18T07:53:42.862Z,988.93
2016-11-18T07:54:42.850Z,988.98
2016-11-18T07:55:42.841Z,989.03
2016-11-18T07:56:42.821Z,989.02
2016-11-18T07:57:42.801Z,989
2016-11-18T07:58:42.786Z,988.95
2016-11-18T07:59:42.768Z,988.9
2016-11-18T08:00:42.754Z,988.9
2016-11-18T08:01:42.738Z,988.91
2016-11-18T08:02:42.723Z,988.9
2016-11-18T08:03:42.707Z,988.79
2016-11-18T08:04:42.690Z,988.78
2016-11-18T08:05:42.677Z,988.81
2016-11-18T08:06:42.658Z,988.79
2016-11-18T08:07:42.644Z,988.79
2016-11-18T08:08:42.627Z,988.98
2016-11-18T08:09:42.614Z,989.1
2016-11-18T08:10:42.597Z,989.11
2016-11-18T08:11:42.582Z,989.23
2016-11-18T08:12:42.564Z,989.19
2016-11-18T08:13:42.549Z,989.19
2016-11-18T08:14:42.535Z,989.19
2016-11-18T08:15:42.518Z,989.23
2016-11-18T08:16:42.500Z,989.23
2016-11-18T08:17:42.486Z,989.27
2016-11-18T08:18:42.469Z,989.28
2016-11-18T08:19:42.456Z,989.26
2016-11-18T08:20:42.437Z,989.25
2016-11-18T08:21:42.424Z,989.23
2016-11-18T08:22:42.406Z,989.21
2016-11-18T08:23:42.389Z,989.17
2016-11-18T08:24:42.374Z,989.11
2016-11-18T08:25:42.359Z,989.1
2016-11-18T08:26:42.346Z,989.16
2016-11-18T08:27:42.327Z,989.19
2016-11-18T08:28:42.311Z,989.22
2016-11-18T08:29:42.297Z,989.25
2016-11-18T08:30:42.279Z,989.26
2016-11-18T08:31:42.263Z,989.32
2016-11-18T08:32:42.249Z,989.28
2016-11-18T08:33:42.231Z,989.25
2016-11-18T08:34:42.217Z,989.29
2016-11-18T08:35:42.199Z,989.34
2016-11-18T08:36:42.186Z,989.22
2016-11-18T08:37:42.169Z,989.13
2016-11-18T08:38:42.155Z,989.1
2016-11-18T08:39:42.136Z,989.09
2016-11-18T08:40:42.121Z,989.14
2016-11-18T08:41:42.111Z,989.11
2016-11-18T08:42:42.086Z,989.17
2016-11-18T08:43:42.073Z,989.11
2016-11-18T08:44:42.056Z,989.02
2016-11-18T08:45:42.039Z,989.13
2016-11-18T08:46:42.024Z,989.07
2016-11-18T08:47:42.009Z,989.2
2016-11-18T08:48:41.992Z,989.2
2016-11-18T08:49:41.976Z,989.31
2016-11-18T08:50:41.962Z,989.26
2016-11-18T08:51:41.943Z,989.18
2016-11-18T08:52:41.926Z,989.23
2016-11-18T08:53:41.911Z,989.15
2016-11-18T08:54:41.894Z,989.16
2016-11-18T08:55:41.879Z,989.17
2016-11-18T08:56:41.863Z,989.25
2016-11-18T08:57:41.845Z,989.17
2016-11-18T08:58:41.831Z,989.16
2016-11-18T08:59:41.815Z,989.16
2016-11-18T09:00:41.800Z,989.01
2016-11-18T09:01:41.782Z,988.99
2016-11-18T09:02:41.766Z,988.8
2016-11-18T09:03:41.751Z,988.65
2016-11-18T09:04:41.734Z,988.81
2016-11-18T09:05:41.720Z,989.02
2016-11-18T09:06:41.702Z,989.21
2016-11-18T09:07:41.691Z,989.28
2016-11-18T09:08:41.671Z,989.29
2016-11-18T09:09:41.657Z,989.35
2016-11-18T09:10:41.639Z,989.48
2016-11-18T09:11:41.622Z,989.55
2016-11-18T09:12:41.610Z,989.6
2016-11-18T09:13:41.592Z,989.55
2016-11-18T09:14:41.575Z,989.53
2016-11-18T09:15:41.559Z,989.62
2016-11-18T09:16:41.546Z,989.57
2016-11-18T09:17:41.525Z,989.55
2016-11-18T09:18:41.513Z,989.58
2016-11-18T09:19:41.494Z,989.51
2016-11-18T09:20:41.485Z,989.46
2016-11-18T09:21:41.464Z,989.38
2016-11-18T09:22:41.444Z,989.35
2016-11-18T09:23:41.429Z,989.45
2016-11-18T09:24:41.416Z,989.54
2016-11-18T09:25:41.398Z,989.69
2016-11-18T09:26:41.384Z,989.72
2016-11-18T09:27:41.368Z,989.79
2016-11-18T09:28:41.352Z,989.85
2016-11-18T09:29:41.336Z,989.93
2016-11-18T09:30:41.318Z,989.92
2016-11-18T09:31:41.303Z,989.98
2016-11-18T09:32:41.285Z,990
2016-11-18T09:33:41.272Z,989.98
2016-11-18T09:34:41.258Z,990.03
2016-11-18T09:35:41.241Z,990.05
2016-11-18T09:36:41.225Z,990.06
2016-11-18T09:37:41.206Z,990.08
2016-11-18T09:38:41.194Z,990.2
2016-11-18T09:39:41.175Z,990.18
2016-11-18T09:40:41.160Z,990.18
2016-11-18T09:41:41.147Z,990.21
2016-11-18T09:42:41.131Z,990.19
2016-11-18T09:43:41.111Z,990.19
2016-11-18T09:44:41.097Z,990.15
2016-11-18T09:45:41.082Z,990.11
2016-11-18T09:46:41.063Z,990.12
2016-11-18T09:47:41.049Z,990.14
2016-11-18T09:48:41.031Z,990.2
2016-11-18T09:49:41.017Z,990.15
2016-11-18T09:50:41.004Z,990.15
2016-11-18T09:51:40.986Z,990.15
2016-11-18T09:52:40.968Z,990.15
2016-11-18T09:53:40.952Z,990.12
2016-11-18T09:54:40.937Z,990.22
2016-11-18T09:55:40.923Z,990.2
2016-11-18T09:56:40.905Z,990.28
2016-11-18T09:57:40.889Z,990.37
2016-11-18T09:58:40.873Z,990.26
2016-11-18T09:59:40.856Z,990.19
2016-11-18T10:00:40.841Z,990.36
2016-11-18T10:01:40.827Z,990.35
2016-11-18T10:02:40.809Z,990.41
2016-11-18T10:03:40.793Z,990.41
2016-11-18T10:04:40.779Z,990.34
2016-11-18T10:05:40.761Z,990.35
2016-11-18T10:06:40.747Z,990.36
2016-11-18T10:07:40.732Z,990.36
2016-11-18T10:08:40.713Z,990.41
2016-11-18T10:09:40.698Z,990.4
2016-11-18T10:10:40.681Z,990.39
2016-11-18T10:11:40.666Z,990.31
2016-11-18T10:12:40.648Z,990.32
2016-11-18T10:13:40.633Z,990.37
2016-11-18T10:14:40.618Z,990.38
2016-11-18T10:15:40.602Z,990.37
2016-11-18T10:16:40.585Z,990.36
2016-11-18T10:17:40.570Z,990.31
2016-11-18T10:18:40.555Z,990.17
2016-11-18T10:19:40.537Z,990.19
2016-11-18T10:20:40.522Z,990.11
2016-11-18T10:21:40.507Z,989.99
2016-11-18T10:22:40.491Z,989.94
2016-11-18T10:23:40.474Z,989.94
2016-11-18T10:24:40.463Z,990.07
2016-11-18T10:25:40.444Z,990.07
2016-11-18T10:26:40.426Z,990.09
2016-11-18T10:27:40.410Z,990.14
2016-11-18T10:28:40.398Z,990.16
2016-11-18T10:29:40.380Z,990.22
2016-11-18T10:30:40.364Z,990.34
2016-11-18T10:31:40.351Z,990.31
2016-11-18T10:32:40.331Z,990.36
2016-11-18T10:33:40.318Z,990.34
2016-11-18T10:34:40.301Z,990.35
2016-11-18T10:35:40.284Z,990.29
2016-11-18T10:36:40.269Z,990.33
2016-11-18T10:37:40.253Z,990.37
2016-11-18T10:38:40.238Z,990.39
2016-11-18T10:39:40.219Z,990.48
2016-11-18T10:40:40.206Z,990.47
2016-11-18T10:41:40.195Z,990.48
2016-11-18T10:42:40.172Z,990.41
2016-11-18T10:43:40.158Z,990.38
2016-11-18T10:44:40.143Z,990.42
2016-11-18T10:45:40.128Z,990.38
2016-11-18T10:46:40.109Z,990.42
2016-11-18T10:47:40.095Z,990.44
2016-11-18T10:48:40.078Z,990.46
2016-11-18T10:49:40.065Z,990.47
2016-11-18T10:50:40.051Z,990.52
2016-11-18T10:51:40.031Z,990.55
2016-11-18T10:52:40.019Z,990.54
2016-11-18T10:53:40.000Z,990.52
2016-11-18T10:54:39.985Z,990.55
2016-11-18T10:55:39.969Z,990.51
2016-11-18T10:56:39.956Z,990.55
2016-11-18T10:57:39.935Z,990.53
2016-11-18T10:58:39.922Z,990.6
2016-11-18T10:59:39.907Z,990.66
2016-11-18T11:00:39.893Z,990.68
2016-11-18T11:01:39.875Z,990.68
2016-11-18T11:02:39.864Z,990.75
2016-11-18T11:03:39.844Z,990.73
2016-11-18T11:04:39.829Z,990.68
2016-11-18T11:05:39.810Z,990.75
2016-11-18T11:06:39.797Z,990.78
2016-11-18T11:07:39.782Z,990.78
2016-11-18T11:08:39.764Z,990.84
2016-11-18T11:09:39.749Z,990.8
2016-11-18T11:10:39.736Z,990.77
2016-11-18T11:11:39.723Z,990.74
2016-11-18T11:12:39.704Z,990.73
2016-11-18T11:13:39.690Z,990.74
2016-11-18T11:14:39.674Z,990.68
2016-11-18T11:15:39.658Z,990.77
2016-11-18T11:16:39.641Z,990.79
2016-11-18T11:17:39.628Z,990.82
2016-11-18T11:18:39.610Z,990.79
2016-11-18T11:19:39.593Z,990.79
2016-11-18T11:20:39.578Z,990.76
2016-11-18T11:21:39.561Z,990.74
2016-11-18T11:22:39.546Z,990.82
2016-11-18T11:23:39.530Z,990.82
2016-11-18T11:24:39.514Z,990.79
2016-11-18T11:25:39.505Z,990.73
2016-11-18T11:26:39.483Z,990.76
2016-11-18T11:27:39.468Z,990.76
2016-11-18T11:28:39.453Z,990.78
2016-11-18T11:29:39.436Z,990.83
2016-11-18T11:30:39.425Z,990.86
2016-11-18T11:31:39.405Z,990.91
2016-11-18T11:32:39.388Z,990.95
2016-11-18T11:33:39.373Z,991
2016-11-18T11:34:39.362Z,990.96
2016-11-18T11:35:39.343Z,991.02
2016-11-18T11:36:39.329Z,991.05
2016-11-18T11:37:39.310Z,991.01
2016-11-18T11:38:39.293Z,991
2016-11-18T11:39:39.280Z,991
2016-11-18T11:40:39.263Z,990.99
2016-11-18T11:41:39.247Z,990.97
2016-11-18T11:42:39.233Z,990.94
2016-11-18T11:43:39.215Z,990.9
2016-11-18T11:44:39.200Z,990.94
2016-11-18T11:45:39.185Z,990.97
2016-11-18T11:46:39.168Z,991.03
2016-11-18T11:47:39.151Z,991.1
2016-11-18T11:48:39.135Z,990.99
2016-11-18T11:49:39.122Z,991.08
2016-11-18T11:50:39.108Z,991.07
2016-11-18T11:51:39.091Z,991.12
2016-11-18T11:52:39.077Z,991.1
2016-11-18T11:53:39.062Z,991.11
2016-11-18T11:54:39.042Z,991.11
2016-11-18T11:55:39.028Z,991.15
2016-11-18T11:56:39.012Z,991.17
2016-11-18T11:57:38.995Z,991.18
2016-11-18T11:58:38.976Z,991.15
2016-11-18T11:59:38.964Z,991.14
2016-11-18T12:00:38.947Z,991.1
2016-11-18T12:01:38.934Z,991.05
2016-11-18T12:02:38.922Z,991.13
2016-11-18T12:03:38.902Z,991.1
2016-11-18T12:04:38.886Z,991.08
2016-11-18T12:05:38.884Z,991.13
2016-11-18T12:06:38.857Z,991.15
2016-11-18T12:07:38.835Z,991.06
2016-11-18T12:08:38.823Z,991.08
2016-11-18T12:09:38.813Z,991.1
2016-11-18T12:10:38.794Z,991.09
2016-11-18T12:11:38.780Z,991.1
2016-11-18T12:12:38.757Z,991.09
2016-11-18T12:13:38.751Z,991.18
2016-11-18T12:14:38.737Z,991.18
2016-11-18T12:15:38.720Z,991.18
2016-11-18T12:16:38.707Z,991.17
2016-11-18T12:17:38.684Z,991.15
2016-11-18T12:18:38.676Z,991.11
2016-11-18T12:19:38.652Z,991.22
2016-11-18T12:20:38.645Z,991.17
2016-11-18T12:21:38.633Z,991.23
2016-11-18T12:22:38.606Z,991.17
2016-11-18T12:23:38.602Z,991.24
2016-11-18T12:24:38.581Z,991.16
2016-11-18T12:25:38.567Z,991.15
2016-11-18T12:26:38.552Z,991.24
2016-11-18T12:27:38.535Z,991.13
2016-11-18T12:28:38.516Z,991.11
2016-11-18T12:29:38.511Z,991.12
2016-11-18T12:30:38.482Z,991.14
2016-11-18T12:31:38.465Z,991.21